createdAt,value
2022-11-21T00:02:05.285Z,0.70
2022-11-21T00:04:37.305Z,0.66
2022-11-21T00:07:09.262Z,0.63
2022-11-21T00:09:41.313Z,0.67
2022-11-21T00:12:13.249Z,0.61
2022-11-21T00:14:45.174Z,0.63
2022-11-21T00:17:17.463Z,0.66
2022-11-21T00:19:49.377Z,0.71
2022-11-21T00:22:21.365Z,0.74
2022-11-21T00:24:54.404Z,0.74
2022-11-21T00:27:26.467Z,0.73
2022-11-21T00:29:58.436Z,0.69
2022-11-21T00:32:30.365Z,0.64
2022-11-21T00:35:02.548Z,0.61
2022-11-21T00:37:35.227Z,0.60
2022-11-21T00:40:07.980Z,0.57
2022-11-21T00:42:39.929Z,0.51
2022-11-21T00:45:12.222Z,0.45
2022-11-21T00:47:44.295Z,0.38
2022-11-21T00:50:16.249Z,0.40
2022-11-21T00:52:48.213Z,0.38
2022-11-21T00:55:20.128Z,0.44
2022-11-21T00:57:52.225Z,0.49
2022-11-21T01:00:24.384Z,0.55
2022-11-21T01:02:56.455Z,0.59
2022-11-21T01:05:28.451Z,0.64
2022-11-21T01:08:00.416Z,0.57
2022-11-21T01:10:32.446Z,0.52
2022-11-21T01:13:04.485Z,0.46
2022-11-21T01:15:36.430Z,0.46
2022-11-21T01:18:08.413Z,0.48
2022-11-21T01:20:40.699Z,0.49
2022-11-21T01:23:12.670Z,0.51
2022-11-21T01:25:44.576Z,0.49
2022-11-21T01:28:16.551Z,0.50
2022-11-21T01:30:48.500Z,0.45
2022-11-21T01:33:20.468Z,0.42
2022-11-21T01:35:52.430Z,0.34
2022-11-21T01:38:24.382Z,0.30
2022-11-21T01:40:56.320Z,0.30
2022-11-21T01:43:28.305Z,0.32
2022-11-21T01:46:14.514Z,0.34
2022-11-21T01:48:54.727Z,0.36
2022-11-21T01:52:20.421Z,0.32
2022-11-21T01:55:05.891Z,0.35
2022-11-21T01:57:42.760Z,0.37
2022-11-21T02:00:28.634Z,0.36
2022-11-21T02:03:06.625Z,0.35
2022-11-21T02:05:40.218Z,0.32
2022-11-21T02:08:20.112Z,0.38
2022-11-21T02:11:25.648Z,0.36
2022-11-21T02:13:57.957Z,0.36
2022-11-21T02:16:30.093Z,0.32
2022-11-21T02:19:02.181Z,0.30
2022-11-21T02:22:05.608Z,0.23
2022-11-21T02:24:46.411Z,0.16
2022-11-21T02:27:19.068Z,0.13
2022-11-21T02:29:51.014Z,0.13
2022-11-21T02:32:26.307Z,0.13
2022-11-21T02:34:58.217Z,0.15
2022-11-21T02:37:31.973Z,0.12
2022-11-21T02:40:10.637Z,0.05
2022-11-21T02:42:54.548Z,0.04
2022-11-21T02:45:42.856Z,0.03
2022-11-21T02:48:15.393Z,0.04
2022-11-21T02:50:48.142Z,0.02
2022-11-21T02:53:20.344Z,0.03
2022-11-21T02:55:52.248Z,0.05
2022-11-21T02:58:24.287Z,0.08
2022-11-21T03:00:56.359Z,0.05
2022-11-21T03:03:28.347Z,-0.03
2022-11-21T03:06:00.256Z,-0.03
2022-11-21T03:08:32.205Z,-0.01
2022-11-21T03:11:04.227Z,0.00
2022-11-21T03:13:36.311Z,-0.01
2022-11-21T03:16:08.259Z,-0.03
2022-11-21T03:18:40.209Z,-0.01
2022-11-21T03:21:12.120Z,-0.01
2022-11-21T03:23:44.100Z,-0.03
2022-11-21T03:26:16.028Z,-0.05
2022-11-21T03:28:48.026Z,-0.09
2022-11-21T03:31:19.957Z,-0.07
2022-11-21T03:33:51.895Z,-0.10
2022-11-21T03:36:24.106Z,-0.11
2022-11-21T03:39:00.178Z,-0.12
2022-11-21T03:41:32.292Z,-0.10
2022-11-21T03:44:09.067Z,-0.07
2022-11-21T03:46:45.316Z,-0.05
2022-11-21T03:49:17.607Z,-0.09
2022-11-21T03:51:49.592Z,-0.11
2022-11-21T03:54:21.545Z,-0.11
2022-11-21T03:56:53.493Z,-0.11
2022-11-21T03:59:26.358Z,-0.12
2022-11-21T04:01:58.413Z,-0.13
2022-11-21T04:04:30.645Z,-0.18
2022-11-21T04:07:02.868Z,-0.19
2022-11-21T04:09:34.899Z,-0.23
2022-11-21T04:12:08.048Z,-0.19
2022-11-21T04:14:40.177Z,-0.24
2022-11-21T04:17:12.116Z,-0.21
2022-11-21T04:19:44.072Z,-0.19
2022-11-21T04:22:16.060Z,-0.17
2022-11-21T04:24:48.007Z,-0.18
2022-11-21T04:27:19.957Z,-0.18
2022-11-21T04:29:51.888Z,-0.16
2022-11-21T04:32:23.799Z,-0.19
2022-11-21T04:34:55.771Z,-0.15
2022-11-21T04:37:27.718Z,-0.15
2022-11-21T04:39:59.659Z,-0.15
2022-11-21T04:42:31.710Z,-0.13
2022-11-21T04:45:04.655Z,-0.17
2022-11-21T04:47:38.916Z,-0.17
2022-11-21T04:50:15.215Z,-0.24
2022-11-21T04:52:52.699Z,-0.24
2022-11-21T04:55:29.877Z,-0.23
2022-11-21T04:58:01.880Z,-0.31
2022-11-21T05:00:34.720Z,-0.31
2022-11-21T05:03:07.378Z,-0.37
2022-11-21T05:05:39.321Z,-0.31
2022-11-21T05:08:11.239Z,-0.29
2022-11-21T05:11:02.564Z,-0.29
2022-11-21T05:13:34.490Z,-0.41
2022-11-21T05:16:07.295Z,-0.56
2022-11-21T05:18:39.262Z,-0.64
2022-11-21T05:21:12.937Z,-0.69
2022-11-21T05:23:44.864Z,-0.71
2022-11-21T05:26:16.815Z,-0.70
2022-11-21T05:28:48.823Z,-0.76
2022-11-21T05:31:20.823Z,-0.73
2022-11-21T05:33:52.768Z,-0.69
2022-11-21T05:36:24.731Z,-0.75
2022-11-21T05:38:56.820Z,-0.83
2022-11-21T05:41:28.863Z,-0.76
2022-11-21T05:44:00.805Z,-0.73
2022-11-21T05:46:32.761Z,-0.69
2022-11-21T05:49:04.768Z,-0.68
2022-11-21T05:51:36.879Z,-0.78
2022-11-21T05:54:13.697Z,-0.80
2022-11-21T05:56:45.651Z,-0.79
2022-11-21T05:59:17.556Z,-0.85
2022-11-21T06:02:08.127Z,-0.88
2022-11-21T06:04:40.089Z,-0.88
2022-11-21T06:07:12.080Z,-0.89
2022-11-21T06:09:44.009Z,-0.94
2022-11-21T06:12:15.947Z,-0.99
2022-11-21T06:14:47.883Z,-1.00
2022-11-21T06:17:19.844Z,-1.03
2022-11-21T06:19:52.863Z,-0.99
2022-11-21T06:22:24.784Z,-0.95
2022-11-21T06:24:56.709Z,-0.92
2022-11-21T06:27:30.022Z,-0.88
2022-11-21T06:30:01.992Z,-0.84
2022-11-21T06:32:38.190Z,-0.79
2022-11-21T06:35:10.205Z,-0.80
2022-11-21T06:37:42.137Z,-0.81
2022-11-21T06:40:14.191Z,-0.80
2022-11-21T06:42:46.107Z,-0.77
2022-11-21T06:45:18.012Z,-0.86
2022-11-21T06:47:49.993Z,-0.88
2022-11-21T06:50:22.787Z,-0.91
2022-11-21T06:52:57.560Z,-1.06
2022-11-21T06:55:31.456Z,-1.18
2022-11-21T06:58:03.406Z,-1.17
2022-11-21T07:00:35.439Z,-1.13
2022-11-21T07:03:07.415Z,-1.07
2022-11-21T07:05:39.359Z,-1.12
2022-11-21T07:08:13.484Z,-1.14
2022-11-21T07:11:10.134Z,-1.14
2022-11-21T07:13:37.942Z,-1.11
2022-11-21T07:16:14.317Z,-1.17
2022-11-21T07:18:46.244Z,-1.38
2022-11-21T07:21:18.218Z,-1.47
2022-11-21T07:23:50.215Z,-1.52
2022-11-21T07:26:22.141Z,-1.49
2022-11-21T07:28:54.156Z,-1.37
2022-11-21T07:31:26.086Z,-1.27
2022-11-21T07:33:58.026Z,-1.32
2022-11-21T07:36:32.516Z,-1.28
2022-11-21T07:39:06.552Z,-1.24
2022-11-21T07:41:38.565Z,-1.17
2022-11-21T07:44:10.591Z,-1.17
2022-11-21T07:46:42.563Z,-1.16
2022-11-21T07:49:14.533Z,-1.32
2022-11-21T07:51:46.500Z,-1.31
2022-11-21T07:54:18.486Z,-1.18
2022-11-21T07:56:50.410Z,-1.30
2022-11-21T07:59:22.545Z,-1.35
2022-11-21T08:01:54.506Z,-1.25
2022-11-21T08:04:26.777Z,-1.31
2022-11-21T08:06:58.755Z,-1.19
2022-11-21T08:09:30.739Z,-1.35
2022-11-21T08:12:02.829Z,-1.24
2022-11-21T08:14:34.856Z,-1.17
2022-11-21T08:17:07.599Z,-1.05
2022-11-21T08:19:39.554Z,-0.89
2022-11-21T08:22:11.525Z,-0.82
2022-11-21T08:24:43.575Z,-0.83
2022-11-21T08:27:20.691Z,-0.83
2022-11-21T08:29:52.794Z,-0.77
2022-11-21T08:32:24.784Z,-0.69
2022-11-21T08:34:56.738Z,-0.66
2022-11-21T08:37:31.799Z,-0.73
2022-11-21T08:40:04.272Z,-0.74
2022-11-21T08:42:37.999Z,-0.73
2022-11-21T08:45:10.632Z,-0.63
2022-11-21T08:47:42.881Z,-0.58
2022-11-21T08:50:15.424Z,-0.55
2022-11-21T08:52:47.551Z,-0.56
2022-11-21T08:55:19.617Z,-0.63
2022-11-21T08:57:51.596Z,-0.64
2022-11-21T09:00:23.789Z,-0.62
2022-11-21T09:02:55.831Z,-0.49
2022-11-21T09:05:27.782Z,-0.44
2022-11-21T09:08:00.222Z,-0.32
2022-11-21T09:10:32.168Z,-0.32
2022-11-21T09:13:04.215Z,-0.21
2022-11-21T09:15:54.454Z,-0.12
2022-11-21T09:18:26.366Z,-0.07
2022-11-21T09:20:59.035Z,0.01
2022-11-21T09:23:31.067Z,0.12
2022-11-21T09:26:03.077Z,0.22
2022-11-21T09:28:36.031Z,0.27
2022-11-21T09:31:08.772Z,0.32
2022-11-21T09:33:40.745Z,0.30
2022-11-21T09:36:12.718Z,0.32
2022-11-21T09:38:44.705Z,0.32
2022-11-21T09:41:53.432Z,0.39
2022-11-21T09:47:38.225Z,0.61
2022-11-21T09:50:13.254Z,0.78
2022-11-21T09:52:58.170Z,0.92
2022-11-21T09:55:35.969Z,1.01
2022-11-21T09:58:40.696Z,1.14
2022-11-21T10:01:14.113Z,1.38
2022-11-21T10:03:49.122Z,1.51
2022-11-21T10:06:36.899Z,1.90
2022-11-21T10:09:31.888Z,2.25
2022-11-21T10:12:38.213Z,2.63
2022-11-21T10:15:34.921Z,2.76
2022-11-21T10:18:29.378Z,3.02
2022-11-21T10:21:35.273Z,3.04
2022-11-21T10:24:22.163Z,3.03
2022-11-21T10:27:03.241Z,3.17
2022-11-21T10:29:53.203Z,3.23
2022-11-21T10:32:37.191Z,3.27
2022-11-21T10:35:41.874Z,3.34
2022-11-21T10:38:26.281Z,3.57
2022-11-21T10:41:15.787Z,3.47
2022-11-21T10:44:47.717Z,3.23
2022-11-21T10:47:28.944Z,3.49
2022-11-21T10:50:09.636Z,3.60
2022-11-21T10:53:25.371Z,3.67
2022-11-21T10:56:06.918Z,3.91
2022-11-21T10:58:45.789Z,3.87
2022-11-21T11:01:31.865Z,3.99
2022-11-21T11:04:27.259Z,4.17
2022-11-21T11:07:34.636Z,4.30
2022-11-21T11:10:27.984Z,4.36
2022-11-21T11:16:11.601Z,4.47
2022-11-21T11:19:17.679Z,4.51
2022-11-21T11:21:50.759Z,4.63
2022-11-21T11:24:27.350Z,4.62
2022-11-21T11:27:02.639Z,4.69
2022-11-21T11:29:50.824Z,4.68
2022-11-21T11:32:23.455Z,4.63
2022-11-21T11:35:14.649Z,4.46
2022-11-21T11:38:10.550Z,4.36
2022-11-21T11:40:44.965Z,4.32
2022-11-21T11:44:01.526Z,4.19
2022-11-21T11:47:18.688Z,3.99
2022-11-21T11:50:13.267Z,3.99
2022-11-21T11:53:17.891Z,3.94
2022-11-21T11:56:16.371Z,3.89
2022-11-21T11:59:11.018Z,3.94
2022-11-21T12:01:56.304Z,3.96
2022-11-21T12:04:39.535Z,3.93
2022-11-21T12:08:39.081Z,3.78
2022-11-21T12:11:34.069Z,3.78
2022-11-21T12:14:40.468Z,3.73
2022-11-21T12:17:16.020Z,3.60
2022-11-21T12:19:52.252Z,3.66
2022-11-21T12:22:24.203Z,3.78
2022-11-21T12:24:56.204Z,3.77
2022-11-21T12:27:32.155Z,3.79
2022-11-21T12:31:10.977Z,3.90
2022-11-21T12:34:22.111Z,3.81
2022-11-21T12:37:51.450Z,3.73
2022-11-21T12:40:50.827Z,3.86
2022-11-21T12:43:49.887Z,3.80
2022-11-21T12:46:39.569Z,3.88
2022-11-21T12:50:22.358Z,3.92
2022-11-21T12:53:23.133Z,3.94
2022-11-21T12:56:06.358Z,4.03
2022-11-21T12:58:42.788Z,4.05
2022-11-21T13:01:55.571Z,4.09
2022-11-21T13:04:35.215Z,3.96
2022-11-21T13:07:08.601Z,3.81
2022-11-21T13:09:47.522Z,3.83
2022-11-21T13:12:52.124Z,3.83
2022-11-21T13:15:38.725Z,3.84
2022-11-21T13:18:36.506Z,3.81
2022-11-21T13:21:47.774Z,3.81
2022-11-21T13:24:44.670Z,3.83
2022-11-21T13:27:39.138Z,3.81
2022-11-21T13:30:11.487Z,3.78
2022-11-21T13:32:54.796Z,3.74
2022-11-21T13:35:26.777Z,3.76
2022-11-21T13:38:10.341Z,3.86
2022-11-21T13:41:02.336Z,3.85
2022-11-21T13:43:35.374Z,3.85
2022-11-21T13:46:07.909Z,3.88
2022-11-21T13:49:12.678Z,3.91
2022-11-21T13:51:53.776Z,3.83
2022-11-21T13:54:52.280Z,3.86
2022-11-21T13:57:27.117Z,3.83
2022-11-21T14:00:26.501Z,3.80
2022-11-21T14:03:16.924Z,3.78
2022-11-21T14:05:59.718Z,3.76
2022-11-21T14:08:31.974Z,3.76
2022-11-21T14:11:38.466Z,3.68
2022-11-21T14:14:10.738Z,3.70
2022-11-21T14:16:48.969Z,3.60
2022-11-21T14:19:21.189Z,3.60
2022-11-21T14:21:55.439Z,3.56
2022-11-21T14:24:28.364Z,3.56
2022-11-21T14:27:01.047Z,3.52
2022-11-21T14:29:41.255Z,3.43
2022-11-21T14:32:19.304Z,3.32
2022-11-21T14:34:51.303Z,3.24
2022-11-21T14:37:23.390Z,3.16
2022-11-21T14:39:57.384Z,3.09
2022-11-21T14:42:39.360Z,3.06
2022-11-21T14:45:21.984Z,3.05
2022-11-21T14:47:54.514Z,3.00
2022-11-21T14:50:30.006Z,2.96
2022-11-21T14:53:04.314Z,2.95
2022-11-21T14:55:36.261Z,2.93
2022-11-21T14:58:10.358Z,2.90
2022-11-21T15:03:35.263Z,2.76
2022-11-21T15:06:11.338Z,2.76
2022-11-21T15:11:53.455Z,2.70
2022-11-21T15:14:38.016Z,2.67
2022-11-21T15:17:16.449Z,2.65
2022-11-21T15:20:23.347Z,2.60
2022-11-21T15:23:01.378Z,2.58
2022-11-21T15:25:47.246Z,2.54
2022-11-21T15:28:19.646Z,2.54
2022-11-21T15:31:18.651Z,2.54
2022-11-21T15:37:04.035Z,2.48
2022-11-21T15:39:36.292Z,2.48
2022-11-21T15:42:37.274Z,2.41
2022-11-21T15:45:19.813Z,2.34
2022-11-21T15:48:07.729Z,2.27
2022-11-21T15:50:40.000Z,2.27
2022-11-21T15:53:19.374Z,2.22
2022-11-21T15:55:51.855Z,2.18
2022-11-21T15:57:14.328Z,2.50
2022-11-21T15:58:23.858Z,2.15
2022-11-21T16:00:55.864Z,2.17
2022-11-21T16:03:27.924Z,2.17
2022-11-21T16:05:59.922Z,2.07
2022-11-21T16:08:32.011Z,2.04
2022-11-21T16:11:04.158Z,2.04
2022-11-21T16:13:36.135Z,2.03
2022-11-21T16:16:13.718Z,2.03
2022-11-21T16:18:47.005Z,2.01
2022-11-21T16:21:20.113Z,1.96
2022-11-21T16:23:52.652Z,1.87
2022-11-21T16:26:30.817Z,1.91
2022-11-21T16:29:05.835Z,1.89
2022-11-21T16:31:37.864Z,1.85
2022-11-21T16:34:09.847Z,1.83
2022-11-21T16:36:41.787Z,1.82
2022-11-21T16:39:18.173Z,1.80
2022-11-21T16:41:50.693Z,1.78
2022-11-21T16:44:22.612Z,1.76
2022-11-21T16:46:55.538Z,1.76
2022-11-21T16:49:27.723Z,1.70
2022-11-21T16:51:59.905Z,1.72
2022-11-21T16:54:31.822Z,1.71
2022-11-21T16:57:03.842Z,1.68
2022-11-21T16:59:35.841Z,1.65
2022-11-21T17:02:07.790Z,1.70
2022-11-21T17:04:39.713Z,1.68
2022-11-21T17:07:11.933Z,1.64
2022-11-21T17:09:44.010Z,1.59
2022-11-21T17:12:16.085Z,1.55
2022-11-21T17:14:48.248Z,1.55
2022-11-21T17:17:20.284Z,1.53
2022-11-21T17:19:54.610Z,1.46
2022-11-21T17:22:26.820Z,1.50
2022-11-21T17:24:58.797Z,1.56
2022-11-21T17:27:30.766Z,1.51
2022-11-21T17:30:02.747Z,1.46
2022-11-21T17:32:35.445Z,1.50
2022-11-21T17:35:08.216Z,1.54
2022-11-21T17:37:40.482Z,1.55
2022-11-21T17:40:13.091Z,1.55
2022-11-21T17:42:45.038Z,1.54
2022-11-21T17:45:17.120Z,1.56
2022-11-21T17:47:49.097Z,1.59
2022-11-21T17:50:21.249Z,1.58
2022-11-21T17:52:53.312Z,1.48
2022-11-21T17:55:25.301Z,1.51
2022-11-21T17:57:57.236Z,1.51
2022-11-21T18:00:29.309Z,1.48
2022-11-21T18:03:01.259Z,1.44
2022-11-21T18:05:33.192Z,1.37
2022-11-21T18:08:05.280Z,1.25
2022-11-21T18:10:43.228Z,1.26
2022-11-21T18:13:16.025Z,1.28
2022-11-21T18:15:48.204Z,1.26
2022-11-21T18:18:20.319Z,1.25
2022-11-21T18:20:52.242Z,1.26
2022-11-21T18:23:24.212Z,1.26
2022-11-21T18:25:56.312Z,1.19
2022-11-21T18:28:28.274Z,1.22
2022-11-21T18:31:19.696Z,1.20
2022-11-21T18:33:55.159Z,1.24
2022-11-21T18:36:29.308Z,1.26
2022-11-21T18:39:07.215Z,1.24
2022-11-21T18:41:44.234Z,1.20
2022-11-21T18:44:21.664Z,1.09
2022-11-21T18:46:54.307Z,1.13
2022-11-21T18:49:26.535Z,1.21
2022-11-21T18:51:59.609Z,1.21
2022-11-21T18:54:31.644Z,1.18
2022-11-21T18:57:03.896Z,1.20
2022-11-21T18:59:35.851Z,1.23
2022-11-21T19:02:09.359Z,1.17
2022-11-21T19:04:41.358Z,1.17
2022-11-21T19:07:13.361Z,1.16
2022-11-21T19:09:46.586Z,1.08
2022-11-21T19:12:18.724Z,1.04
2022-11-21T19:14:52.086Z,1.06
2022-11-21T19:17:24.044Z,1.01
2022-11-21T19:19:56.075Z,1.04
2022-11-21T19:22:28.037Z,1.04
2022-11-21T19:24:59.989Z,1.08
2022-11-21T19:27:31.940Z,1.02
2022-11-21T19:30:04.412Z,1.04
2022-11-21T19:32:36.848Z,1.06
2022-11-21T19:35:09.302Z,1.03
2022-11-21T19:37:41.284Z,1.01
2022-11-21T19:40:14.123Z,1.01
2022-11-21T19:42:46.109Z,0.94
2022-11-21T19:45:18.229Z,0.98
2022-11-21T19:47:56.937Z,1.03
2022-11-21T19:50:28.910Z,0.97
2022-11-21T19:53:00.850Z,0.98
2022-11-21T19:55:32.821Z,0.93
2022-11-21T19:58:04.783Z,0.93
2022-11-21T20:00:36.755Z,0.92
2022-11-21T20:03:09.880Z,0.91
2022-11-21T20:05:41.832Z,0.97
2022-11-21T20:08:17.675Z,0.99
2022-11-21T20:10:50.214Z,1.00
2022-11-21T20:13:22.151Z,0.94
2022-11-21T20:15:54.145Z,0.99
2022-11-21T20:18:26.082Z,0.94
2022-11-21T20:20:58.137Z,0.94
2022-11-21T20:23:30.094Z,0.88
2022-11-21T20:26:02.530Z,0.88
2022-11-21T20:28:36.441Z,0.92
2022-11-21T20:31:12.556Z,1.05
2022-11-21T20:33:48.358Z,1.05
2022-11-21T20:36:23.618Z,1.04
2022-11-21T20:38:59.167Z,1.05
2022-11-21T20:41:34.295Z,1.11
2022-11-21T20:47:08.879Z,1.24
2022-11-21T20:49:40.854Z,1.31
2022-11-21T20:55:05.660Z,1.35
2022-11-21T20:57:37.690Z,1.34
2022-11-21T21:00:11.731Z,1.37
2022-11-21T21:02:43.685Z,1.32
2022-11-21T21:05:15.751Z,1.25
2022-11-21T21:07:47.737Z,1.19
2022-11-21T21:10:22.747Z,1.14
2022-11-21T21:12:54.759Z,1.17
2022-11-21T21:15:26.755Z,1.22
2022-11-21T21:17:59.779Z,1.17
2022-11-21T21:20:36.462Z,1.18
2022-11-21T21:23:21.389Z,1.16
2022-11-21T21:25:53.402Z,1.19
2022-11-21T21:28:25.359Z,1.21
2022-11-21T21:30:57.500Z,1.13
2022-11-21T21:33:29.487Z,1.16
2022-11-21T21:36:11.520Z,1.14
2022-11-21T21:38:44.678Z,1.18
2022-11-21T21:41:16.778Z,1.14
2022-11-21T21:43:53.807Z,1.08
2022-11-21T21:46:27.811Z,1.16
2022-11-21T21:48:59.913Z,1.22
2022-11-21T21:51:32.488Z,1.26
2022-11-21T21:54:05.238Z,1.30
2022-11-21T21:56:37.175Z,1.34
2022-11-21T21:59:09.627Z,1.37
2022-11-21T22:01:42.956Z,1.40
2022-11-21T22:04:14.987Z,1.35
2022-11-21T22:06:46.917Z,1.45
2022-11-21T22:09:19.467Z,1.54
2022-11-21T22:11:51.398Z,1.54
2022-11-21T22:14:23.372Z,1.61
2022-11-21T22:16:55.395Z,1.48
2022-11-21T22:19:28.330Z,1.61
2022-11-21T22:22:00.374Z,1.61
2022-11-21T22:24:32.373Z,1.76
2022-11-21T22:27:04.438Z,1.61
2022-11-21T22:29:36.452Z,1.65
2022-11-21T22:32:08.415Z,1.70
2022-11-21T22:34:40.388Z,1.69
2022-11-21T22:37:12.445Z,1.78
2022-11-21T22:39:44.561Z,1.67
2022-11-21T22:42:16.544Z,1.74
2022-11-21T22:44:48.526Z,1.81
2022-11-21T22:47:21.528Z,1.87
2022-11-21T22:49:53.557Z,1.90
2022-11-21T22:52:25.791Z,1.86
2022-11-21T22:54:57.796Z,1.89
2022-11-21T22:57:29.740Z,1.81
2022-11-21T23:00:02.339Z,1.64
2022-11-21T23:02:35.597Z,1.64
2022-11-21T23:05:08.060Z,1.73
2022-11-21T23:07:40.165Z,1.76
2022-11-21T23:10:12.612Z,1.84
2022-11-21T23:12:44.587Z,1.95
2022-11-21T23:15:16.745Z,1.87
2022-11-21T23:17:52.618Z,1.96
2022-11-21T23:20:25.406Z,1.83
2022-11-21T23:22:57.553Z,1.79
2022-11-21T23:25:29.545Z,1.82
2022-11-21T23:28:01.446Z,1.88
2022-11-21T23:30:33.481Z,1.95
2022-11-21T23:33:05.436Z,1.97
2022-11-21T23:35:37.865Z,1.94
2022-11-21T23:38:10.845Z,1.77
2022-11-21T23:40:46.307Z,1.77
2022-11-21T23:43:19.271Z,1.83
2022-11-21T23:45:52.831Z,1.89
2022-11-21T23:48:25.000Z,1.94
2022-11-21T23:50:57.059Z,1.97
2022-11-21T23:53:29.125Z,2.00
2022-11-21T23:56:01.176Z,2.05
2022-11-21T23:58:33.191Z,2.03
